sensor_id;sensor_type;location;lat;lon;timestamp;P1;durP1;ratioP1;P2;durP2;ratioP2
65375;SDS011;51976;47.332;9.404;2024-02-26T00:01:45;0.85;;;0.20;;
65375;SDS011;51976;47.332;9.404;2024-02-26T00:04:11;0.68;;;0.30;;
65375;SDS011;51976;47.332;9.404;2024-02-26T00:06:37;0.38;;;0.13;;
65375;SDS011;51976;47.332;9.404;2024-02-26T00:09:06;1.08;;;0.20;;
65375;SDS011;51976;47.332;9.404;2024-02-26T00:11:35;0.38;;;0.17;;
65375;SDS011;51976;47.332;9.404;2024-02-26T00:14:04;0.77;;;0.30;;
65375;SDS011;51976;47.332;9.404;2024-02-26T00:16:29;1.27;;;0.10;;
65375;SDS011;51976;47.332;9.404;2024-02-26T00:18:55;0.50;;;0.10;;
65375;SDS011;51976;47.332;9.404;2024-02-26T00:21:21;1.05;;;0.20;;
65375;SDS011;51976;47.332;9.404;2024-02-26T00:23:46;0.22;;;0.10;;
65375;SDS011;51976;47.332;9.404;2024-02-26T00:26:12;0.77;;;0.28;;
65375;SDS011;51976;47.332;9.404;2024-02-26T00:28:38;0.20;;;0.10;;
65375;SDS011;51976;47.332;9.404;2024-02-26T00:31:03;0.28;;;0.20;;
65375;SDS011;51976;47.332;9.404;2024-02-26T00:33:29;0.85;;;0.20;;
65375;SDS011;51976;47.332;9.404;2024-02-26T00:35:54;1.95;;;0.20;;
65375;SDS011;51976;47.332;9.404;2024-02-26T00:38:20;0.75;;;0.10;;
65375;SDS011;51976;47.332;9.404;2024-02-26T00:40:45;0.30;;;0.20;;
65375;SDS011;51976;47.332;9.404;2024-02-26T00:43:11;0.30;;;0.10;;
65375;SDS011;51976;47.332;9.404;2024-02-26T00:45:40;0.43;;;0.03;;
65375;SDS011;51976;47.332;9.404;2024-02-26T00:48:05;0.22;;;0.08;;
65375;SDS011;51976;47.332;9.404;2024-02-26T00:50:32;0.13;;;0.10;;
65375;SDS011;51976;47.332;9.404;2024-02-26T00:52:58;0.30;;;0.10;;
65375;SDS011;51976;47.332;9.404;2024-02-26T00:55:24;0.28;;;0.10;;
65375;SDS011;51976;47.332;9.404;2024-02-26T00:57:50;0.15;;;0.00;;
65375;SDS011;51976;47.332;9.404;2024-02-26T01:00:15;0.30;;;0.20;;
65375;SDS011;51976;47.332;9.404;2024-02-26T01:02:41;1.13;;;0.00;;
65375;SDS011;51976;47.332;9.404;2024-02-26T01:05:07;0.08;;;0.03;;
65375;SDS011;51976;47.332;9.404;2024-02-26T01:07:36;0.10;;;0.00;;
65375;SDS011;51976;47.332;9.404;2024-02-26T01:10:02;0.40;;;0.10;;
65375;SDS011;51976;47.332;9.404;2024-02-26T01:12:28;0.10;;;0.10;;
65375;SDS011;51976;47.332;9.404;2024-02-26T01:14:57;0.40;;;0.10;;
65375;SDS011;51976;47.332;9.404;2024-02-26T01:17:23;0.30;;;0.10;;
65375;SDS011;51976;47.332;9.404;2024-02-26T01:19:48;0.10;;;0.00;;
65375;SDS011;51976;47.332;9.404;2024-02-26T01:22:14;0.10;;;0.00;;
65375;SDS011;51976;47.332;9.404;2024-02-26T01:24:39;0.40;;;0.10;;
65375;SDS011;51976;47.332;9.404;2024-02-26T01:27:07;0.40;;;0.03;;
65375;SDS011;51976;47.332;9.404;2024-02-26T01:29:34;0.20;;;0.00;;
65375;SDS011;51976;47.332;9.404;2024-02-26T01:31:59;0.30;;;0.10;;
65375;SDS011;51976;47.332;9.404;2024-02-26T01:34:25;0.35;;;0.10;;
65375;SDS011;51976;47.332;9.404;2024-02-26T01:36:50;0.10;;;0.00;;
65375;SDS011;51976;47.332;9.404;2024-02-26T01:39:16;0.32;;;0.10;;
65375;SDS011;51976;47.332;9.404;2024-02-26T01:41:41;0.38;;;0.05;;
65375;SDS011;51976;47.332;9.404;2024-02-26T01:44:07;0.28;;;0.28;;
65375;SDS011;51976;47.332;9.404;2024-02-26T01:46:35;0.43;;;0.10;;
65375;SDS011;51976;47.332;9.404;2024-02-26T01:49:02;0.00;;;0.00;;
65375;SDS011;51976;47.332;9.404;2024-02-26T01:51:28;0.25;;;0.10;;
65375;SDS011;51976;47.332;9.404;2024-02-26T01:53:54;0.00;;;0.00;;
65375;SDS011;51976;47.332;9.404;2024-02-26T01:56:20;0.10;;;0.10;;
65375;SDS011;51976;47.332;9.404;2024-02-26T01:58:47;0.43;;;0.00;;
65375;SDS011;51976;47.332;9.404;2024-02-26T02:01:14;0.28;;;0.10;;
65375;SDS011;51976;47.332;9.404;2024-02-26T02:03:43;0.20;;;0.10;;
65375;SDS011;51976;47.332;9.404;2024-02-26T02:06:10;1.98;;;0.10;;
65375;SDS011;51976;47.332;9.404;2024-02-26T02:08:37;0.30;;;0.10;;
65375;SDS011;51976;47.332;9.404;2024-02-26T02:11:03;0.10;;;0.10;;
65375;SDS011;51976;47.332;9.404;2024-02-26T02:13:29;0.10;;;0.00;;
65375;SDS011;51976;47.332;9.404;2024-02-26T02:15:55;0.20;;;0.00;;
65375;SDS011;51976;47.332;9.404;2024-02-26T02:18:20;0.00;;;0.00;;
65375;SDS011;51976;47.332;9.404;2024-02-26T02:20:46;0.10;;;0.00;;
65375;SDS011;51976;47.332;9.404;2024-02-26T02:23:11;0.10;;;0.00;;
65375;SDS011;51976;47.332;9.404;2024-02-26T02:25:37;0.10;;;0.00;;
65375;SDS011;51976;47.332;9.404;2024-02-26T02:28:02;0.00;;;0.00;;
65375;SDS011;51976;47.332;9.404;2024-02-26T02:30:29;0.10;;;0.00;;
65375;SDS011;51976;47.332;9.404;2024-02-26T02:32:56;0.22;;;0.05;;
65375;SDS011;51976;47.332;9.404;2024-02-26T02:35:25;0.30;;;0.00;;
65375;SDS011;51976;47.332;9.404;2024-02-26T02:37:51;0.10;;;0.00;;
65375;SDS011;51976;47.332;9.404;2024-02-26T02:40:18;0.10;;;0.00;;
65375;SDS011;51976;47.332;9.404;2024-02-26T02:42:44;1.25;;;0.00;;
65375;SDS011;51976;47.332;9.404;2024-02-26T02:45:09;0.10;;;0.00;;
65375;SDS011;51976;47.332;9.404;2024-02-26T02:47:37;0.00;;;0.00;;
65375;SDS011;51976;47.332;9.404;2024-02-26T02:50:06;0.00;;;0.00;;
65375;SDS011;51976;47.332;9.404;2024-02-26T02:52:35;0.05;;;0.00;;
65375;SDS011;51976;47.332;9.404;2024-02-26T02:55:01;0.00;;;0.00;;
65375;SDS011;51976;47.332;9.404;2024-02-26T02:57:30;0.10;;;0.00;;
65375;SDS011;51976;47.332;9.404;2024-02-26T02:59:56;0.00;;;0.00;;
65375;SDS011;51976;47.332;9.404;2024-02-26T03:02:22;0.13;;;0.00;;
65375;SDS011;51976;47.332;9.404;2024-02-26T03:04:49;0.03;;;0.00;;
65375;SDS011;51976;47.332;9.404;2024-02-26T03:07:18;0.00;;;0.00;;
65375;SDS011;51976;47.332;9.404;2024-02-26T03:09:43;0.17;;;0.10;;
65375;SDS011;51976;47.332;9.404;2024-02-26T03:12:09;0.00;;;0.00;;
65375;SDS011;51976;47.332;9.404;2024-02-26T03:14:34;0.20;;;0.03;;
65375;SDS011;51976;47.332;9.404;2024-02-26T03:17:00;1.65;;;0.00;;
65375;SDS011;51976;47.332;9.404;2024-02-26T03:19:26;0.57;;;0.15;;
65375;SDS011;51976;47.332;9.404;2024-02-26T03:21:51;0.28;;;0.17;;
65375;SDS011;51976;47.332;9.404;2024-02-26T03:24:17;0.10;;;0.00;;
65375;SDS011;51976;47.332;9.404;2024-02-26T03:26:42;0.98;;;0.10;;
65375;SDS011;51976;47.332;9.404;2024-02-26T03:29:08;0.28;;;0.10;;
65375;SDS011;51976;47.332;9.404;2024-02-26T03:31:33;0.30;;;0.10;;
65375;SDS011;51976;47.332;9.404;2024-02-26T03:33:59;0.38;;;0.05;;
65375;SDS011;51976;47.332;9.404;2024-02-26T03:36:24;0.10;;;0.03;;
65375;SDS011;51976;47.332;9.404;2024-02-26T03:38:50;0.45;;;0.10;;
65375;SDS011;51976;47.332;9.404;2024-02-26T03:41:16;0.20;;;0.00;;
65375;SDS011;51976;47.332;9.404;2024-02-26T03:43:41;0.20;;;0.10;;
65375;SDS011;51976;47.332;9.404;2024-02-26T03:46:07;0.47;;;0.10;;
65375;SDS011;51976;47.332;9.404;2024-02-26T03:48:34;1.75;;;0.20;;
65375;SDS011;51976;47.332;9.404;2024-02-26T03:50:59;0.98;;;0.10;;
65375;SDS011;51976;47.332;9.404;2024-02-26T03:53:25;1.42;;;0.10;;
65375;SDS011;51976;47.332;9.404;2024-02-26T03:55:51;1.05;;;0.57;;
65375;SDS011;51976;47.332;9.404;2024-02-26T03:58:17;0.88;;;0.20;;
65375;SDS011;51976;47.332;9.404;2024-02-26T04:00:43;1.40;;;0.30;;
65375;SDS011;51976;47.332;9.404;2024-02-26T04:03:09;0.68;;;0.30;;
65375;SDS011;51976;47.332;9.404;2024-02-26T04:05:35;0.20;;;0.10;;
65375;SDS011;51976;47.332;9.404;2024-02-26T04:08:01;0.20;;;0.03;;
65375;SDS011;51976;47.332;9.404;2024-02-26T04:10:29;0.20;;;0.10;;
65375;SDS011;51976;47.332;9.404;2024-02-26T04:12:55;0.10;;;0.00;;
65375;SDS011;51976;47.332;9.404;2024-02-26T04:15:20;0.10;;;0.00;;
65375;SDS011;51976;47.332;9.404;2024-02-26T04:17:46;0.10;;;0.00;;
65375;SDS011;51976;47.332;9.404;2024-02-26T04:20:13;0.45;;;0.03;;
65375;SDS011;51976;47.332;9.404;2024-02-26T04:22:40;0.45;;;0.00;;
65375;SDS011;51976;47.332;9.404;2024-02-26T04:25:06;0.00;;;0.00;;
65375;SDS011;51976;47.332;9.404;2024-02-26T04:27:32;0.00;;;0.00;;
65375;SDS011;51976;47.332;9.404;2024-02-26T04:29:58;1.20;;;0.10;;
65375;SDS011;51976;47.332;9.404;2024-02-26T04:32:23;0.00;;;0.00;;
65375;SDS011;51976;47.332;9.404;2024-02-26T04:34:51;0.20;;;0.10;;
65375;SDS011;51976;47.332;9.404;2024-02-26T04:37:17;0.57;;;0.10;;
65375;SDS011;51976;47.332;9.404;2024-02-26T04:39:42;0.22;;;0.00;;
65375;SDS011;51976;47.332;9.404;2024-02-26T04:42:08;1.25;;;0.10;;
65375;SDS011;51976;47.332;9.404;2024-02-26T04:44:33;1.20;;;0.20;;
65375;SDS011;51976;47.332;9.404;2024-02-26T04:46:59;0.50;;;0.20;;
65375;SDS011;51976;47.332;9.404;2024-02-26T04:49:26;0.35;;;0.20;;
65375;SDS011;51976;47.332;9.404;2024-02-26T04:51:52;0.68;;;0.30;;
65375;SDS011;51976;47.332;9.404;2024-02-26T04:54:18;0.45;;;0.10;;
65375;SDS011;51976;47.332;9.404;2024-02-26T04:56:43;1.13;;;0.38;;
65375;SDS011;51976;47.332;9.404;2024-02-26T04:59:09;1.75;;;0.30;;
65375;SDS011;51976;47.332;9.404;2024-02-26T05:01:34;0.57;;;0.40;;
65375;SDS011;51976;47.332;9.404;2024-02-26T05:04:01;1.33;;;0.47;;
65375;SDS011;51976;47.332;9.404;2024-02-26T05:06:30;1.25;;;0.35;;
65375;SDS011;51976;47.332;9.404;2024-02-26T05:08:58;1.33;;;0.47;;
65375;SDS011;51976;47.332;9.404;2024-02-26T05:11:24;0.40;;;0.20;;
65375;SDS011;51976;47.332;9.404;2024-02-26T05:13:49;1.55;;;0.32;;
65375;SDS011;51976;47.332;9.404;2024-02-26T05:16:15;2.80;;;0.50;;
65375;SDS011;51976;47.332;9.404;2024-02-26T05:18:40;0.63;;;0.28;;
65375;SDS011;51976;47.332;9.404;2024-02-26T05:21:06;1.92;;;0.80;;
65375;SDS011;51976;47.332;9.404;2024-02-26T05:23:31;1.98;;;0.75;;
65375;SDS011;51976;47.332;9.404;2024-02-26T05:25:57;2.50;;;1.10;;
65375;SDS011;51976;47.332;9.404;2024-02-26T05:28:22;4.70;;;1.00;;
65375;SDS011;51976;47.332;9.404;2024-02-26T05:30:48;3.53;;;1.40;;
65375;SDS011;51976;47.332;9.404;2024-02-26T05:33:13;3.22;;;0.70;;
65375;SDS011;51976;47.332;9.404;2024-02-26T05:35:39;1.77;;;0.90;;
65375;SDS011;51976;47.332;9.404;2024-02-26T05:38:05;2.38;;;0.82;;
65375;SDS011;51976;47.332;9.404;2024-02-26T05:40:31;3.53;;;0.95;;
65375;SDS011;51976;47.332;9.404;2024-02-26T05:42:56;1.98;;;0.90;;
65375;SDS011;51976;47.332;9.404;2024-02-26T05:45:22;6.05;;;1.25;;
65375;SDS011;51976;47.332;9.404;2024-02-26T05:47:47;0.90;;;0.65;;
65375;SDS011;51976;47.332;9.404;2024-02-26T05:50:14;3.60;;;1.20;;
65375;SDS011;51976;47.332;9.404;2024-02-26T05:52:40;7.55;;;1.38;;
65375;SDS011;51976;47.332;9.404;2024-02-26T05:55:06;3.67;;;1.45;;
65375;SDS011;51976;47.332;9.404;2024-02-26T05:57:33;2.85;;;1.50;;
65375;SDS011;51976;47.332;9.404;2024-02-26T05:59:59;2.25;;;1.15;;
65375;SDS011;51976;47.332;9.404;2024-02-26T06:02:29;1.73;;;0.80;;
65375;SDS011;51976;47.332;9.404;2024-02-26T06:04:55;5.75;;;1.25;;
65375;SDS011;51976;47.332;9.404;2024-02-26T06:07:20;1.70;;;0.40;;
65375;SDS011;51976;47.332;9.404;2024-02-26T06:09:46;1.63;;;0.70;;
65375;SDS011;51976;47.332;9.404;2024-02-26T06:12:14;0.98;;;0.47;;
65375;SDS011;51976;47.332;9.404;2024-02-26T06:14:41;2.22;;;0.70;;
65375;SDS011;51976;47.332;9.404;2024-02-26T06:17:07;0.95;;;0.40;;
65375;SDS011;51976;47.332;9.404;2024-02-26T06:19:33;4.07;;;0.90;;
65375;SDS011;51976;47.332;9.404;2024-02-26T06:22:01;1.77;;;0.70;;
65375;SDS011;51976;47.332;9.404;2024-02-26T06:24:26;1.17;;;0.77;;
65375;SDS011;51976;47.332;9.404;2024-02-26T06:26:52;6.60;;;1.10;;
65375;SDS011;51976;47.332;9.404;2024-02-26T06:29:18;7.35;;;0.80;;
65375;SDS011;51976;47.332;9.404;2024-02-26T06:31:43;7.85;;;2.22;;
65375;SDS011;51976;47.332;9.404;2024-02-26T06:34:09;6.28;;;2.42;;
65375;SDS011;51976;47.332;9.404;2024-02-26T06:36:34;15.48;;;2.55;;
65375;SDS011;51976;47.332;9.404;2024-02-26T06:39:00;3.90;;;2.00;;
65375;SDS011;51976;47.332;9.404;2024-02-26T06:41:26;5.85;;;2.38;;
65375;SDS011;51976;47.332;9.404;2024-02-26T06:43:53;8.32;;;2.35;;
65375;SDS011;51976;47.332;9.404;2024-02-26T06:46:19;8.82;;;1.60;;
65375;SDS011;51976;47.332;9.404;2024-02-26T06:48:45;5.78;;;2.30;;
65375;SDS011;51976;47.332;9.404;2024-02-26T06:51:16;6.38;;;2.53;;
65375;SDS011;51976;47.332;9.404;2024-02-26T06:53:43;5.72;;;2.00;;
65375;SDS011;51976;47.332;9.404;2024-02-26T06:59:06;3.47;;;1.50;;
65375;SDS011;51976;47.332;9.404;2024-02-26T07:01:49;4.07;;;1.15;;
65375;SDS011;51976;47.332;9.404;2024-02-26T07:04:53;4.00;;;1.10;;
65375;SDS011;51976;47.332;9.404;2024-02-26T07:07:28;3.75;;;1.23;;
65375;SDS011;51976;47.332;9.404;2024-02-26T07:10:44;4.13;;;1.42;;
65375;SDS011;51976;47.332;9.404;2024-02-26T07:13:14;5.88;;;2.60;;
65375;SDS011;51976;47.332;9.404;2024-02-26T07:15:40;3.45;;;2.00;;
65375;SDS011;51976;47.332;9.404;2024-02-26T07:18:08;5.05;;;2.42;;
65375;SDS011;51976;47.332;9.404;2024-02-26T07:20:35;3.58;;;2.22;;
65375;SDS011;51976;47.332;9.404;2024-02-26T07:23:01;4.85;;;2.20;;
65375;SDS011;51976;47.332;9.404;2024-02-26T07:25:28;8.15;;;2.10;;
65375;SDS011;51976;47.332;9.404;2024-02-26T07:27:56;4.47;;;1.98;;
65375;SDS011;51976;47.332;9.404;2024-02-26T07:30:22;7.47;;;1.67;;
65375;SDS011;51976;47.332;9.404;2024-02-26T07:32:49;8.82;;;2.20;;
65375;SDS011;51976;47.332;9.404;2024-02-26T07:35:15;4.32;;;2.00;;
65375;SDS011;51976;47.332;9.404;2024-02-26T07:37:42;5.97;;;1.90;;
65375;SDS011;51976;47.332;9.404;2024-02-26T07:40:08;3.92;;;1.77;;
65375;SDS011;51976;47.332;9.404;2024-02-26T07:42:37;6.50;;;1.95;;
65375;SDS011;51976;47.332;9.404;2024-02-26T07:45:06;2.95;;;1.27;;
65375;SDS011;51976;47.332;9.404;2024-02-26T07:47:31;3.65;;;1.58;;
65375;SDS011;51976;47.332;9.404;2024-02-26T07:49:59;9.23;;;2.10;;
65375;SDS011;51976;47.332;9.404;2024-02-26T07:52:27;7.20;;;1.85;;
65375;SDS011;51976;47.332;9.404;2024-02-26T07:55:02;4.72;;;1.65;;
65375;SDS011;51976;47.332;9.404;2024-02-26T07:57:28;7.65;;;1.90;;
65375;SDS011;51976;47.332;9.404;2024-02-26T08:02:23;8.18;;;1.95;;
65375;SDS011;51976;47.332;9.404;2024-02-26T08:04:48;4.65;;;1.77;;
65375;SDS011;51976;47.332;9.404;2024-02-26T08:07:14;6.82;;;1.13;;
65375;SDS011;51976;47.332;9.404;2024-02-26T08:09:40;2.42;;;1.10;;
65375;SDS011;51976;47.332;9.404;2024-02-26T08:12:08;3.45;;;1.00;;
65375;SDS011;51976;47.332;9.404;2024-02-26T08:14:34;1.85;;;0.80;;
65375;SDS011;51976;47.332;9.404;2024-02-26T08:16:59;3.45;;;0.88;;
65375;SDS011;51976;47.332;9.404;2024-02-26T08:19:27;5.57;;;1.30;;
65375;SDS011;51976;47.332;9.404;2024-02-26T08:21:53;1.67;;;1.10;;
65375;SDS011;51976;47.332;9.404;2024-02-26T08:24:20;5.43;;;1.20;;
65375;SDS011;51976;47.332;9.404;2024-02-26T08:26:46;7.30;;;1.17;;
65375;SDS011;51976;47.332;9.404;2024-02-26T08:29:12;4.18;;;1.38;;
65375;SDS011;51976;47.332;9.404;2024-02-26T08:31:43;2.83;;;1.48;;
65375;SDS011;51976;47.332;9.404;2024-02-26T08:34:10;2.65;;;1.27;;
65375;SDS011;51976;47.332;9.404;2024-02-26T08:36:36;4.47;;;1.73;;
65375;SDS011;51976;47.332;9.404;2024-02-26T08:39:02;5.60;;;2.05;;
65375;SDS011;51976;47.332;9.404;2024-02-26T08:41:28;7.90;;;2.35;;
65375;SDS011;51976;47.332;9.404;2024-02-26T08:43:54;14.27;;;4.18;;
65375;SDS011;51976;47.332;9.404;2024-02-26T08:46:20;6.15;;;3.10;;
65375;SDS011;51976;47.332;9.404;2024-02-26T08:48:45;5.95;;;2.65;;
65375;SDS011;51976;47.332;9.404;2024-02-26T08:51:11;7.13;;;1.98;;
65375;SDS011;51976;47.332;9.404;2024-02-26T08:53:36;5.43;;;3.28;;
65375;SDS011;51976;47.332;9.404;2024-02-26T08:56:02;9.98;;;5.85;;
65375;SDS011;51976;47.332;9.404;2024-02-26T08:58:40;6.22;;;3.38;;
65375;SDS011;51976;47.332;9.404;2024-02-26T09:01:13;4.50;;;2.75;;
65375;SDS011;51976;47.332;9.404;2024-02-26T09:03:45;3.20;;;1.70;;
65375;SDS011;51976;47.332;9.404;2024-02-26T09:06:11;3.30;;;1.73;;
65375;SDS011;51976;47.332;9.404;2024-02-26T09:08:37;4.40;;;1.58;;
65375;SDS011;51976;47.332;9.404;2024-02-26T09:11:04;3.08;;;1.67;;
65375;SDS011;51976;47.332;9.404;2024-02-26T09:13:29;3.97;;;1.33;;
65375;SDS011;51976;47.332;9.404;2024-02-26T09:15:55;2.63;;;1.45;;
65375;SDS011;51976;47.332;9.404;2024-02-26T09:18:24;5.35;;;1.35;;
65375;SDS011;51976;47.332;9.404;2024-02-26T09:20:55;2.58;;;1.23;;
65375;SDS011;51976;47.332;9.404;2024-02-26T09:23:21;3.03;;;1.67;;
65375;SDS011;51976;47.332;9.404;2024-02-26T09:25:47;3.65;;;0.90;;
65375;SDS011;51976;47.332;9.404;2024-02-26T09:28:12;2.40;;;1.10;;
65375;SDS011;51976;47.332;9.404;2024-02-26T09:30:38;2.75;;;1.20;;
65375;SDS011;51976;47.332;9.404;2024-02-26T09:33:03;2.17;;;1.30;;
65375;SDS011;51976;47.332;9.404;2024-02-26T09:35:32;2.28;;;0.95;;
65375;SDS011;51976;47.332;9.404;2024-02-26T09:38:01;4.47;;;1.70;;
65375;SDS011;51976;47.332;9.404;2024-02-26T09:40:27;2.47;;;1.38;;
65375;SDS011;51976;47.332;9.404;2024-02-26T09:42:53;4.05;;;1.38;;
65375;SDS011;51976;47.332;9.404;2024-02-26T09:45:25;3.92;;;2.30;;
65375;SDS011;51976;47.332;9.404;2024-02-26T09:47:53;3.22;;;1.70;;
65375;SDS011;51976;47.332;9.404;2024-02-26T09:50:21;2.97;;;1.63;;
65375;SDS011;51976;47.332;9.404;2024-02-26T09:52:48;4.15;;;1.88;;
65375;SDS011;51976;47.332;9.404;2024-02-26T09:55:17;6.18;;;2.00;;
65375;SDS011;51976;47.332;9.404;2024-02-26T09:57:45;6.07;;;1.83;;
65375;SDS011;51976;47.332;9.404;2024-02-26T10:00:15;2.13;;;1.30;;
65375;SDS011;51976;47.332;9.404;2024-02-26T10:02:46;2.53;;;1.33;;
65375;SDS011;51976;47.332;9.404;2024-02-26T10:05:14;2.58;;;1.52;;
65375;SDS011;51976;47.332;9.404;2024-02-26T10:07:42;4.43;;;1.30;;
65375;SDS011;51976;47.332;9.404;2024-02-26T10:10:09;3.17;;;1.38;;
65375;SDS011;51976;47.332;9.404;2024-02-26T10:12:36;4.03;;;1.48;;
65375;SDS011;51976;47.332;9.404;2024-02-26T10:15:02;3.92;;;1.98;;
65375;SDS011;51976;47.332;9.404;2024-02-26T10:17:35;4.53;;;2.60;;
65375;SDS011;51976;47.332;9.404;2024-02-26T10:20:11;5.82;;;1.88;;
65375;SDS011;51976;47.332;9.404;2024-02-26T10:22:49;4.18;;;1.25;;
65375;SDS011;51976;47.332;9.404;2024-02-26T10:25:18;2.08;;;1.10;;
65375;SDS011;51976;47.332;9.404;2024-02-26T10:27:55;3.78;;;1.40;;
65375;SDS011;51976;47.332;9.404;2024-02-26T10:30:27;3.05;;;1.40;;
65375;SDS011;51976;47.332;9.404;2024-02-26T10:33:00;3.10;;;1.27;;
65375;SDS011;51976;47.332;9.404;2024-02-26T10:35:26;3.97;;;1.20;;
65375;SDS011;51976;47.332;9.404;2024-02-26T10:37:53;3.13;;;1.35;;
65375;SDS011;51976;47.332;9.404;2024-02-26T10:40:19;5.72;;;1.45;;
65375;SDS011;51976;47.332;9.404;2024-02-26T10:42:45;1.98;;;1.20;;
65375;SDS011;51976;47.332;9.404;2024-02-26T10:45:11;4.70;;;1.40;;
65375;SDS011;51976;47.332;9.404;2024-02-26T10:47:36;2.25;;;1.40;;
65375;SDS011;51976;47.332;9.404;2024-02-26T10:50:08;6.07;;;1.33;;
65375;SDS011;51976;47.332;9.404;2024-02-26T10:52:35;5.60;;;1.15;;
65375;SDS011;51976;47.332;9.404;2024-02-26T10:55:07;4.93;;;1.20;;
65375;SDS011;51976;47.332;9.404;2024-02-26T10:57:39;3.03;;;1.17;;
65375;SDS011;51976;47.332;9.404;2024-02-26T11:00:15;3.42;;;1.20;;
65375;SDS011;51976;47.332;9.404;2024-02-26T11:02:44;2.95;;;1.63;;
65375;SDS011;51976;47.332;9.404;2024-02-26T11:05:11;4.03;;;1.40;;
65375;SDS011;51976;47.332;9.404;2024-02-26T11:07:41;5.20;;;1.83;;
65375;SDS011;51976;47.332;9.404;2024-02-26T11:10:09;4.70;;;1.80;;
65375;SDS011;51976;47.332;9.404;2024-02-26T11:12:40;11.90;;;1.60;;
65375;SDS011;51976;47.332;9.404;2024-02-26T11:15:09;3.58;;;1.33;;
65375;SDS011;51976;47.332;9.404;2024-02-26T11:17:38;3.05;;;1.70;;
65375;SDS011;51976;47.332;9.404;2024-02-26T11:20:09;2.10;;;1.40;;
65375;SDS011;51976;47.332;9.404;2024-02-26T11:22:37;4.05;;;1.70;;
65375;SDS011;51976;47.332;9.404;2024-02-26T11:25:03;5.15;;;1.55;;
65375;SDS011;51976;47.332;9.404;2024-02-26T11:27:37;1.98;;;1.00;;
65375;SDS011;51976;47.332;9.404;2024-02-26T11:30:08;2.60;;;1.52;;
65375;SDS011;51976;47.332;9.404;2024-02-26T11:32:38;6.10;;;3.33;;
65375;SDS011;51976;47.332;9.404;2024-02-26T11:35:11;12.30;;;3.95;;
65375;SDS011;51976;47.332;9.404;2024-02-26T11:37:40;5.15;;;2.22;;
65375;SDS011;51976;47.332;9.404;2024-02-26T11:40:09;3.15;;;1.73;;
65375;SDS011;51976;47.332;9.404;2024-02-26T11:42:36;1.70;;;1.10;;
65375;SDS011;51976;47.332;9.404;2024-02-26T11:45:47;5.85;;;2.80;;
65375;SDS011;51976;47.332;9.404;2024-02-26T11:48:20;6.57;;;3.28;;
65375;SDS011;51976;47.332;9.404;2024-02-26T11:50:52;8.23;;;2.70;;
65375;SDS011;51976;47.332;9.404;2024-02-26T11:53:34;2.95;;;1.40;;
65375;SDS011;51976;47.332;9.404;2024-02-26T11:56:20;1.88;;;0.98;;
65375;SDS011;51976;47.332;9.404;2024-02-26T12:04:24;2.75;;;1.38;;
65375;SDS011;51976;47.332;9.404;2024-02-26T12:06:55;1.73;;;0.88;;
65375;SDS011;51976;47.332;9.404;2024-02-26T12:09:41;4.03;;;0.80;;
65375;SDS011;51976;47.332;9.404;2024-02-26T12:12:11;4.55;;;2.08;;
65375;SDS011;51976;47.332;9.404;2024-02-26T12:14:52;4.10;;;2.38;;
65375;SDS011;51976;47.332;9.404;2024-02-26T12:17:19;2.60;;;1.42;;
65375;SDS011;51976;47.332;9.404;2024-02-26T12:19:47;3.05;;;1.00;;
65375;SDS011;51976;47.332;9.404;2024-02-26T12:22:13;3.60;;;0.90;;
65375;SDS011;51976;47.332;9.404;2024-02-26T12:24:39;1.92;;;0.60;;
65375;SDS011;51976;47.332;9.404;2024-02-26T12:27:06;0.50;;;0.32;;
65375;SDS011;51976;47.332;9.404;2024-02-26T12:29:34;1.45;;;0.70;;
65375;SDS011;51976;47.332;9.404;2024-02-26T12:32:00;1.60;;;0.70;;
65375;SDS011;51976;47.332;9.404;2024-02-26T12:34:28;1.13;;;0.40;;
65375;SDS011;51976;47.332;9.404;2024-02-26T12:36:59;6.20;;;3.78;;
65375;SDS011;51976;47.332;9.404;2024-02-26T12:39:27;2.05;;;1.00;;
65375;SDS011;51976;47.332;9.404;2024-02-26T12:41:53;1.92;;;0.30;;
65375;SDS011;51976;47.332;9.404;2024-02-26T12:44:25;1.60;;;0.40;;
65375;SDS011;51976;47.332;9.404;2024-02-26T12:46:59;2.20;;;0.95;;
65375;SDS011;51976;47.332;9.404;2024-02-26T12:49:27;2.15;;;0.80;;
65375;SDS011;51976;47.332;9.404;2024-02-26T12:51:53;4.10;;;0.93;;
65375;SDS011;51976;47.332;9.404;2024-02-26T12:54:19;0.73;;;0.32;;
65375;SDS011;51976;47.332;9.404;2024-02-26T12:56:44;0.35;;;0.10;;
65375;SDS011;51976;47.332;9.404;2024-02-26T12:59:10;4.32;;;0.75;;
65375;SDS011;51976;47.332;9.404;2024-02-26T13:01:37;1.80;;;0.70;;
65375;SDS011;51976;47.332;9.404;2024-02-26T13:04:03;1.30;;;0.55;;
65375;SDS011;51976;47.332;9.404;2024-02-26T13:06:32;1.95;;;0.45;;
65375;SDS011;51976;47.332;9.404;2024-02-26T13:08:59;0.30;;;0.15;;
65375;SDS011;51976;47.332;9.404;2024-02-26T13:11:24;0.40;;;0.10;;
65375;SDS011;51976;47.332;9.404;2024-02-26T13:13:54;0.93;;;0.40;;
65375;SDS011;51976;47.332;9.404;2024-02-26T13:16:20;0.30;;;0.20;;
65375;SDS011;51976;47.332;9.404;2024-02-26T13:18:49;1.00;;;0.35;;
65375;SDS011;51976;47.332;9.404;2024-02-26T13:21:16;0.10;;;0.00;;
65375;SDS011;51976;47.332;9.404;2024-02-26T13:23:47;0.57;;;0.22;;
65375;SDS011;51976;47.332;9.404;2024-02-26T13:26:21;0.55;;;0.10;;
65375;SDS011;51976;47.332;9.404;2024-02-26T13:29:01;0.47;;;0.20;;
65375;SDS011;51976;47.332;9.404;2024-02-26T13:31:28;0.90;;;0.50;;
65375;SDS011;51976;47.332;9.404;2024-02-26T13:33:54;1.17;;;0.20;;
65375;SDS011;51976;47.332;9.404;2024-02-26T13:36:24;1.27;;;0.20;;
65375;SDS011;51976;47.332;9.404;2024-02-26T13:38:51;2.50;;;0.30;;
65375;SDS011;51976;47.332;9.404;2024-02-26T13:41:18;1.02;;;0.20;;
65375;SDS011;51976;47.332;9.404;2024-02-26T13:43:43;0.00;;;0.00;;
65375;SDS011;51976;47.332;9.404;2024-02-26T13:46:10;0.10;;;0.00;;
65375;SDS011;51976;47.332;9.404;2024-02-26T13:48:38;0.03;;;0.00;;
65375;SDS011;51976;47.332;9.404;2024-02-26T13:51:03;0.30;;;0.10;;
65375;SDS011;51976;47.332;9.404;2024-02-26T13:53:29;0.65;;;0.10;;
65375;SDS011;51976;47.332;9.404;2024-02-26T13:55:55;0.35;;;0.13;;
65375;SDS011;51976;47.332;9.404;2024-02-26T13:58:21;0.57;;;0.10;;
65375;SDS011;51976;47.332;9.404;2024-02-26T14:00:48;0.10;;;0.03;;
65375;SDS011;51976;47.332;9.404;2024-02-26T14:03:15;0.30;;;0.05;;
65375;SDS011;51976;47.332;9.404;2024-02-26T14:05:41;0.47;;;0.00;;
65375;SDS011;51976;47.332;9.404;2024-02-26T14:08:07;0.30;;;0.15;;
65375;SDS011;51976;47.332;9.404;2024-02-26T14:10:32;0.00;;;0.00;;
65375;SDS011;51976;47.332;9.404;2024-02-26T14:12:58;0.43;;;0.20;;
65375;SDS011;51976;47.332;9.404;2024-02-26T14:15:25;0.70;;;0.13;;
65375;SDS011;51976;47.332;9.404;2024-02-26T14:17:53;0.77;;;0.20;;
65375;SDS011;51976;47.332;9.404;2024-02-26T14:20:23;2.30;;;0.10;;
65375;SDS011;51976;47.332;9.404;2024-02-26T14:22:49;0.25;;;0.10;;
65375;SDS011;51976;47.332;9.404;2024-02-26T14:25:18;0.30;;;0.13;;
65375;SDS011;51976;47.332;9.404;2024-02-26T14:27:44;0.28;;;0.10;;
65375;SDS011;51976;47.332;9.404;2024-02-26T14:30:11;0.20;;;0.05;;
65375;SDS011;51976;47.332;9.404;2024-02-26T14:32:37;10.32;;;0.32;;
65375;SDS011;51976;47.332;9.404;2024-02-26T14:35:03;0.25;;;0.20;;
65375;SDS011;51976;47.332;9.404;2024-02-26T14:37:34;0.20;;;0.10;;
65375;SDS011;51976;47.332;9.404;2024-02-26T14:40:01;1.30;;;0.10;;
65375;SDS011;51976;47.332;9.404;2024-02-26T14:42:28;0.40;;;0.15;;
65375;SDS011;51976;47.332;9.404;2024-02-26T14:44:54;0.43;;;0.10;;
65375;SDS011;51976;47.332;9.404;2024-02-26T14:47:20;0.05;;;0.00;;
65375;SDS011;51976;47.332;9.404;2024-02-26T14:49:45;0.52;;;0.22;;
65375;SDS011;51976;47.332;9.404;2024-02-26T14:52:13;0.43;;;0.20;;
65375;SDS011;51976;47.332;9.404;2024-02-26T14:54:41;0.47;;;0.20;;
65375;SDS011;51976;47.332;9.404;2024-02-26T14:57:08;0.30;;;0.17;;
65375;SDS011;51976;47.332;9.404;2024-02-26T14:59:34;0.77;;;0.20;;
65375;SDS011;51976;47.332;9.404;2024-02-26T15:02:02;1.23;;;0.32;;